sensor_id;sensor_type;location;lat;lon;timestamp;temperature;humidity
7000;DHT22;3540;53.242;10.408;2023-09-19T00:00:26;16.70;99.90
7000;DHT22;3540;53.242;10.408;2023-09-19T00:02:56;16.70;99.90
7000;DHT22;3540;53.242;10.408;2023-09-19T00:05:23;16.60;99.90
7000;DHT22;3540;53.242;10.408;2023-09-19T00:07:53;16.60;99.90
7000;DHT22;3540;53.242;10.408;2023-09-19T00:10:24;16.60;99.90
7000;DHT22;3540;53.242;10.408;2023-09-19T00:12:51;16.60;99.90
7000;DHT22;3540;53.242;10.408;2023-09-19T00:15:25;16.50;99.90
7000;DHT22;3540;53.242;10.408;2023-09-19T00:17:54;16.50;99.90
7000;DHT22;3540;53.242;10.408;2023-09-19T00:20:20;16.50;99.90
7000;DHT22;3540;53.242;10.408;2023-09-19T00:22:49;16.50;99.90
7000;DHT22;3540;53.242;10.408;2023-09-19T00:25:17;16.40;99.90
7000;DHT22;3540;53.242;10.408;2023-09-19T00:27:43;16.40;99.90
7000;DHT22;3540;53.242;10.408;2023-09-19T00:30:11;16.40;99.90
7000;DHT22;3540;53.242;10.408;2023-09-19T00:32:42;16.30;99.90
7000;DHT22;3540;53.242;10.408;2023-09-19T00:35:08;16.30;99.90
7000;DHT22;3540;53.242;10.408;2023-09-19T00:37:37;16.30;99.90
7000;DHT22;3540;53.242;10.408;2023-09-19T00:40:07;16.30;99.90
7000;DHT22;3540;53.242;10.408;2023-09-19T00:42:40;16.30;99.90
7000;DHT22;3540;53.242;10.408;2023-09-19T00:45:10;16.30;99.90
7000;DHT22;3540;53.242;10.408;2023-09-19T00:47:43;16.30;99.90
7000;DHT22;3540;53.242;10.408;2023-09-19T00:50:10;16.30;99.90
7000;DHT22;3540;53.242;10.408;2023-09-19T00:52:39;16.30;99.90
7000;DHT22;3540;53.242;10.408;2023-09-19T00:55:06;16.40;99.90
7000;DHT22;3540;53.242;10.408;2023-09-19T00:57:33;16.40;99.90
7000;DHT22;3540;53.242;10.408;2023-09-19T01:00:00;16.40;99.90
7000;DHT22;3540;53.242;10.408;2023-09-19T01:02:26;16.40;99.90
7000;DHT22;3540;53.242;10.408;2023-09-19T01:04:54;16.40;99.90
7000;DHT22;3540;53.242;10.408;2023-09-19T01:07:21;16.40;99.90
7000;DHT22;3540;53.242;10.408;2023-09-19T01:09:48;16.40;99.90
7000;DHT22;3540;53.242;10.408;2023-09-19T01:12:16;16.40;99.90
7000;DHT22;3540;53.242;10.408;2023-09-19T01:14:57;16.40;99.90
7000;DHT22;3540;53.242;10.408;2023-09-19T01:17:29;16.40;99.90
7000;DHT22;3540;53.242;10.408;2023-09-19T01:20:25;16.50;99.90
7000;DHT22;3540;53.242;10.408;2023-09-19T01:23:17;16.50;99.90
7000;DHT22;3540;53.242;10.408;2023-09-19T01:26:06;16.50;99.90
7000;DHT22;3540;53.242;10.408;2023-09-19T01:28:52;16.50;99.90
7000;DHT22;3540;53.242;10.408;2023-09-19T01:31:23;16.50;99.90
7000;DHT22;3540;53.242;10.408;2023-09-19T01:33:54;16.50;99.90
7000;DHT22;3540;53.242;10.408;2023-09-19T01:36:26;16.50;99.90
7000;DHT22;3540;53.242;10.408;2023-09-19T01:38:52;16.50;99.90
7000;DHT22;3540;53.242;10.408;2023-09-19T01:41:26;16.50;99.90
7000;DHT22;3540;53.242;10.408;2023-09-19T01:43:55;16.50;99.90
7000;DHT22;3540;53.242;10.408;2023-09-19T01:46:25;16.50;99.90
7000;DHT22;3540;53.242;10.408;2023-09-19T01:49:02;16.40;99.90
7000;DHT22;3540;53.242;10.408;2023-09-19T01:51:51;16.50;99.90
7000;DHT22;3540;53.242;10.408;2023-09-19T01:54:26;16.50;99.90
7000;DHT22;3540;53.242;10.408;2023-09-19T01:57:58;16.50;99.90
7000;DHT22;3540;53.242;10.408;2023-09-19T02:00:06;16.50;99.90
7000;DHT22;3540;53.242;10.408;2023-09-19T02:02:39;16.50;99.90
7000;DHT22;3540;53.242;10.408;2023-09-19T02:05:06;16.50;99.90
7000;DHT22;3540;53.242;10.408;2023-09-19T02:07:32;16.50;99.90
7000;DHT22;3540;53.242;10.408;2023-09-19T02:09:58;16.50;99.90
7000;DHT22;3540;53.242;10.408;2023-09-19T02:12:30;16.40;99.90
7000;DHT22;3540;53.242;10.408;2023-09-19T02:14:56;16.40;99.90
7000;DHT22;3540;53.242;10.408;2023-09-19T02:17:23;16.40;99.90
7000;DHT22;3540;53.242;10.408;2023-09-19T02:19:52;16.30;99.90
7000;DHT22;3540;53.242;10.408;2023-09-19T02:22:18;16.40;99.90
7000;DHT22;3540;53.242;10.408;2023-09-19T02:24:43;16.30;99.90
7000;DHT22;3540;53.242;10.408;2023-09-19T02:27:09;16.30;99.90
7000;DHT22;3540;53.242;10.408;2023-09-19T02:29:38;16.30;99.90
7000;DHT22;3540;53.242;10.408;2023-09-19T02:32:03;16.30;99.90
7000;DHT22;3540;53.242;10.408;2023-09-19T02:34:29;16.30;99.90
7000;DHT22;3540;53.242;10.408;2023-09-19T02:36:55;16.30;99.90
7000;DHT22;3540;53.242;10.408;2023-09-19T02:39:22;16.30;99.90
7000;DHT22;3540;53.242;10.408;2023-09-19T02:41:49;16.30;99.90
7000;DHT22;3540;53.242;10.408;2023-09-19T02:44:15;16.20;99.90
7000;DHT22;3540;53.242;10.408;2023-09-19T02:46:40;16.20;99.90
7000;DHT22;3540;53.242;10.408;2023-09-19T02:49:07;16.20;99.90
7000;DHT22;3540;53.242;10.408;2023-09-19T02:51:33;16.20;99.90
7000;DHT22;3540;53.242;10.408;2023-09-19T02:53:59;16.30;99.90
7000;DHT22;3540;53.242;10.408;2023-09-19T02:56:25;16.30;99.90
7000;DHT22;3540;53.242;10.408;2023-09-19T02:58:52;16.30;99.90
7000;DHT22;3540;53.242;10.408;2023-09-19T03:01:18;16.30;99.90
7000;DHT22;3540;53.242;10.408;2023-09-19T03:03:44;16.30;99.90
7000;DHT22;3540;53.242;10.408;2023-09-19T03:06:11;16.30;99.90
7000;DHT22;3540;53.242;10.408;2023-09-19T03:08:38;16.20;99.90
7000;DHT22;3540;53.242;10.408;2023-09-19T03:11:06;16.20;99.90
7000;DHT22;3540;53.242;10.408;2023-09-19T03:13:33;16.20;99.90
7000;DHT22;3540;53.242;10.408;2023-09-19T03:16:01;16.20;99.90
7000;DHT22;3540;53.242;10.408;2023-09-19T03:18:30;16.20;99.90
7000;DHT22;3540;53.242;10.408;2023-09-19T03:20:57;16.20;99.90
7000;DHT22;3540;53.242;10.408;2023-09-19T03:23:25;16.20;99.90
7000;DHT22;3540;53.242;10.408;2023-09-19T03:25:52;16.20;99.90
7000;DHT22;3540;53.242;10.408;2023-09-19T03:28:21;16.20;99.90
7000;DHT22;3540;53.242;10.408;2023-09-19T03:31:07;16.20;99.90
7000;DHT22;3540;53.242;10.408;2023-09-19T03:33:33;16.10;99.90
7000;DHT22;3540;53.242;10.408;2023-09-19T03:36:00;16.20;99.90
7000;DHT22;3540;53.242;10.408;2023-09-19T03:38:27;16.10;99.90
7000;DHT22;3540;53.242;10.408;2023-09-19T03:40:54;16.10;99.90
7000;DHT22;3540;53.242;10.408;2023-09-19T03:43:19;16.10;99.90
7000;DHT22;3540;53.242;10.408;2023-09-19T03:45:45;16.10;99.90
7000;DHT22;3540;53.242;10.408;2023-09-19T03:48:12;16.00;99.90
7000;DHT22;3540;53.242;10.408;2023-09-19T03:50:38;15.90;99.90
7000;DHT22;3540;53.242;10.408;2023-09-19T03:53:04;15.80;99.90
7000;DHT22;3540;53.242;10.408;2023-09-19T03:55:32;15.70;99.90
7000;DHT22;3540;53.242;10.408;2023-09-19T03:58:01;15.70;99.90
7000;DHT22;3540;53.242;10.408;2023-09-19T04:00:26;15.70;99.90
7000;DHT22;3540;53.242;10.408;2023-09-19T04:02:52;15.60;99.90
7000;DHT22;3540;53.242;10.408;2023-09-19T04:05:19;15.60;99.90
7000;DHT22;3540;53.242;10.408;2023-09-19T04:07:44;15.50;99.90
7000;DHT22;3540;53.242;10.408;2023-09-19T04:10:10;15.50;99.90
7000;DHT22;3540;53.242;10.408;2023-09-19T04:12:40;15.50;99.90
7000;DHT22;3540;53.242;10.408;2023-09-19T04:15:06;15.50;99.90
7000;DHT22;3540;53.242;10.408;2023-09-19T04:17:32;15.50;99.90
7000;DHT22;3540;53.242;10.408;2023-09-19T04:20:01;15.50;99.90
7000;DHT22;3540;53.242;10.408;2023-09-19T04:22:26;15.60;99.90
7000;DHT22;3540;53.242;10.408;2023-09-19T04:24:52;15.60;99.90
7000;DHT22;3540;53.242;10.408;2023-09-19T04:27:18;15.60;99.90
7000;DHT22;3540;53.242;10.408;2023-09-19T04:29:44;15.50;99.90
7000;DHT22;3540;53.242;10.408;2023-09-19T04:32:10;15.50;99.90
7000;DHT22;3540;53.242;10.408;2023-09-19T04:34:36;15.40;99.90
7000;DHT22;3540;53.242;10.408;2023-09-19T04:37:03;15.40;99.90
7000;DHT22;3540;53.242;10.408;2023-09-19T04:39:29;15.40;99.90
7000;DHT22;3540;53.242;10.408;2023-09-19T04:41:55;15.30;99.90
7000;DHT22;3540;53.242;10.408;2023-09-19T04:44:21;15.30;99.90
7000;DHT22;3540;53.242;10.408;2023-09-19T04:46:47;15.30;99.90
7000;DHT22;3540;53.242;10.408;2023-09-19T04:49:13;15.20;99.90
7000;DHT22;3540;53.242;10.408;2023-09-19T04:51:39;15.20;99.90
7000;DHT22;3540;53.242;10.408;2023-09-19T04:54:05;15.20;99.90
7000;DHT22;3540;53.242;10.408;2023-09-19T04:56:32;15.20;99.90
7000;DHT22;3540;53.242;10.408;2023-09-19T04:58:58;15.10;99.90
7000;DHT22;3540;53.242;10.408;2023-09-19T05:01:24;15.10;99.90
7000;DHT22;3540;53.242;10.408;2023-09-19T05:03:50;15.10;99.90
7000;DHT22;3540;53.242;10.408;2023-09-19T05:06:19;15.10;99.90
7000;DHT22;3540;53.242;10.408;2023-09-19T05:08:49;15.00;99.90
7000;DHT22;3540;53.242;10.408;2023-09-19T05:11:17;15.10;99.90
7000;DHT22;3540;53.242;10.408;2023-09-19T05:13:43;15.10;99.90
7000;DHT22;3540;53.242;10.408;2023-09-19T05:16:09;15.10;99.90
7000;DHT22;3540;53.242;10.408;2023-09-19T05:18:35;15.00;99.90
7000;DHT22;3540;53.242;10.408;2023-09-19T05:21:04;15.00;99.90
7000;DHT22;3540;53.242;10.408;2023-09-19T05:23:30;15.00;99.90
7000;DHT22;3540;53.242;10.408;2023-09-19T05:25:56;15.00;99.90
7000;DHT22;3540;53.242;10.408;2023-09-19T05:28:24;14.90;99.90
7000;DHT22;3540;53.242;10.408;2023-09-19T05:30:49;14.90;99.90
7000;DHT22;3540;53.242;10.408;2023-09-19T05:33:15;14.90;99.90
7000;DHT22;3540;53.242;10.408;2023-09-19T05:35:41;14.90;99.90
7000;DHT22;3540;53.242;10.408;2023-09-19T05:38:07;14.90;99.90
7000;DHT22;3540;53.242;10.408;2023-09-19T05:40:38;14.80;99.90
7000;DHT22;3540;53.242;10.408;2023-09-19T05:43:06;14.90;99.90
7000;DHT22;3540;53.242;10.408;2023-09-19T05:45:31;14.90;99.90
7000;DHT22;3540;53.242;10.408;2023-09-19T05:48:10;14.90;99.90
7000;DHT22;3540;53.242;10.408;2023-09-19T05:50:41;14.80;99.90
7000;DHT22;3540;53.242;10.408;2023-09-19T05:53:07;14.80;99.90
7000;DHT22;3540;53.242;10.408;2023-09-19T05:55:33;14.80;99.90
7000;DHT22;3540;53.242;10.408;2023-09-19T05:57:59;14.80;99.90
7000;DHT22;3540;53.242;10.408;2023-09-19T06:00:26;14.80;99.90
7000;DHT22;3540;53.242;10.408;2023-09-19T06:02:57;14.80;99.90
7000;DHT22;3540;53.242;10.408;2023-09-19T06:05:25;14.80;99.90
7000;DHT22;3540;53.242;10.408;2023-09-19T06:07:52;14.90;99.90
7000;DHT22;3540;53.242;10.408;2023-09-19T06:10:18;14.90;99.90
7000;DHT22;3540;53.242;10.408;2023-09-19T06:12:46;15.00;99.90
7000;DHT22;3540;53.242;10.408;2023-09-19T06:15:13;15.00;99.90
7000;DHT22;3540;53.242;10.408;2023-09-19T06:17:48;15.10;99.90
7000;DHT22;3540;53.242;10.408;2023-09-19T06:20:15;15.10;99.90
7000;DHT22;3540;53.242;10.408;2023-09-19T06:22:45;15.20;99.90
7000;DHT22;3540;53.242;10.408;2023-09-19T06:25:12;15.20;99.90
7000;DHT22;3540;53.242;10.408;2023-09-19T06:27:41;15.30;99.90
7000;DHT22;3540;53.242;10.408;2023-09-19T06:30:08;15.30;99.90
7000;DHT22;3540;53.242;10.408;2023-09-19T06:32:35;15.40;99.90
7000;DHT22;3540;53.242;10.408;2023-09-19T06:35:01;15.50;99.90
7000;DHT22;3540;53.242;10.408;2023-09-19T06:37:30;15.50;99.90
7000;DHT22;3540;53.242;10.408;2023-09-19T06:39:55;15.60;99.90
7000;DHT22;3540;53.242;10.408;2023-09-19T06:42:22;15.70;99.90
7000;DHT22;3540;53.242;10.408;2023-09-19T06:44:49;15.80;99.90
7000;DHT22;3540;53.242;10.408;2023-09-19T06:47:14;15.80;99.90
7000;DHT22;3540;53.242;10.408;2023-09-19T06:49:42;15.80;99.90
7000;DHT22;3540;53.242;10.408;2023-09-19T06:52:10;15.90;99.90
7000;DHT22;3540;53.242;10.408;2023-09-19T06:54:36;15.90;99.90
7000;DHT22;3540;53.242;10.408;2023-09-19T06:57:03;16.00;99.90
7000;DHT22;3540;53.242;10.408;2023-09-19T06:59:28;16.00;99.90
7000;DHT22;3540;53.242;10.408;2023-09-19T07:01:54;16.00;99.90
7000;DHT22;3540;53.242;10.408;2023-09-19T07:04:20;16.20;99.90
7000;DHT22;3540;53.242;10.408;2023-09-19T07:06:52;16.20;99.90
7000;DHT22;3540;53.242;10.408;2023-09-19T07:09:17;16.30;99.90
7000;DHT22;3540;53.242;10.408;2023-09-19T07:11:45;16.30;99.90
7000;DHT22;3540;53.242;10.408;2023-09-19T07:14:11;16.40;99.90
7000;DHT22;3540;53.242;10.408;2023-09-19T07:16:37;16.40;99.90
7000;DHT22;3540;53.242;10.408;2023-09-19T07:19:05;16.30;99.90
7000;DHT22;3540;53.242;10.408;2023-09-19T07:21:31;16.30;99.90
7000;DHT22;3540;53.242;10.408;2023-09-19T07:24:00;16.30;99.90
7000;DHT22;3540;53.242;10.408;2023-09-19T07:26:26;16.40;99.90
7000;DHT22;3540;53.242;10.408;2023-09-19T07:28:53;16.40;99.90
7000;DHT22;3540;53.242;10.408;2023-09-19T07:31:19;16.40;99.90
7000;DHT22;3540;53.242;10.408;2023-09-19T07:33:44;16.40;99.90
7000;DHT22;3540;53.242;10.408;2023-09-19T07:36:11;16.40;99.90
7000;DHT22;3540;53.242;10.408;2023-09-19T07:38:41;16.50;99.90
7000;DHT22;3540;53.242;10.408;2023-09-19T07:41:08;16.50;99.90
7000;DHT22;3540;53.242;10.408;2023-09-19T07:43:35;16.50;99.90
7000;DHT22;3540;53.242;10.408;2023-09-19T07:46:08;16.50;99.90
7000;DHT22;3540;53.242;10.408;2023-09-19T07:48:37;16.60;99.90
7000;DHT22;3540;53.242;10.408;2023-09-19T07:51:08;16.80;99.90
7000;DHT22;3540;53.242;10.408;2023-09-19T07:53:34;16.90;99.90
7000;DHT22;3540;53.242;10.408;2023-09-19T07:56:04;17.00;99.90
7000;DHT22;3540;53.242;10.408;2023-09-19T07:58:31;17.10;99.90
7000;DHT22;3540;53.242;10.408;2023-09-19T08:01:05;17.00;99.90
7000;DHT22;3540;53.242;10.408;2023-09-19T08:03:32;17.10;99.90
7000;DHT22;3540;53.242;10.408;2023-09-19T08:05:58;17.10;99.90
7000;DHT22;3540;53.242;10.408;2023-09-19T08:08:25;17.00;99.90
7000;DHT22;3540;53.242;10.408;2023-09-19T08:10:55;16.90;99.90
7000;DHT22;3540;53.242;10.408;2023-09-19T08:13:22;16.80;99.90
7000;DHT22;3540;53.242;10.408;2023-09-19T08:15:48;16.80;99.90
7000;DHT22;3540;53.242;10.408;2023-09-19T08:18:15;17.00;99.90
7000;DHT22;3540;53.242;10.408;2023-09-19T08:20:41;17.10;99.90
7000;DHT22;3540;53.242;10.408;2023-09-19T08:23:08;17.30;99.90
7000;DHT22;3540;53.242;10.408;2023-09-19T08:25:34;17.30;99.90
7000;DHT22;3540;53.242;10.408;2023-09-19T08:28:00;17.40;99.90
7000;DHT22;3540;53.242;10.408;2023-09-19T08:30:27;17.20;99.90
7000;DHT22;3540;53.242;10.408;2023-09-19T08:33:01;17.30;99.90
7000;DHT22;3540;53.242;10.408;2023-09-19T08:35:30;17.40;99.90
7000;DHT22;3540;53.242;10.408;2023-09-19T08:37:56;17.50;99.90
7000;DHT22;3540;53.242;10.408;2023-09-19T08:40:22;17.40;99.90
7000;DHT22;3540;53.242;10.408;2023-09-19T08:42:54;17.50;99.90
7000;DHT22;3540;53.242;10.408;2023-09-19T08:45:21;17.50;99.90
7000;DHT22;3540;53.242;10.408;2023-09-19T08:48:17;17.60;99.90
7000;DHT22;3540;53.242;10.408;2023-09-19T08:50:55;17.60;99.90
7000;DHT22;3540;53.242;10.408;2023-09-19T08:55:59;17.50;99.90
7000;DHT22;3540;53.242;10.408;2023-09-19T08:58:32;17.60;99.90
7000;DHT22;3540;53.242;10.408;2023-09-19T09:01:00;17.60;99.90
7000;DHT22;3540;53.242;10.408;2023-09-19T09:03:31;17.70;99.90
7000;DHT22;3540;53.242;10.408;2023-09-19T09:05:57;17.70;99.90
7000;DHT22;3540;53.242;10.408;2023-09-19T09:08:24;17.90;99.90
7000;DHT22;3540;53.242;10.408;2023-09-19T09:10:51;18.00;99.90
7000;DHT22;3540;53.242;10.408;2023-09-19T09:13:17;18.10;99.90
7000;DHT22;3540;53.242;10.408;2023-09-19T09:15:43;18.40;99.90
7000;DHT22;3540;53.242;10.408;2023-09-19T09:18:10;18.50;99.90
7000;DHT22;3540;53.242;10.408;2023-09-19T09:20:35;18.40;99.90
7000;DHT22;3540;53.242;10.408;2023-09-19T09:23:01;18.20;99.90
7000;DHT22;3540;53.242;10.408;2023-09-19T09:25:48;18.20;99.90
7000;DHT22;3540;53.242;10.408;2023-09-19T09:28:23;18.30;99.90
7000;DHT22;3540;53.242;10.408;2023-09-19T09:30:49;18.40;99.90
7000;DHT22;3540;53.242;10.408;2023-09-19T09:33:15;18.50;99.90
7000;DHT22;3540;53.242;10.408;2023-09-19T09:38:25;18.40;99.90
7000;DHT22;3540;53.242;10.408;2023-09-19T09:40:54;18.50;99.90
7000;DHT22;3540;53.242;10.408;2023-09-19T09:43:39;18.40;99.90
7000;DHT22;3540;53.242;10.408;2023-09-19T09:46:16;18.50;99.90
7000;DHT22;3540;53.242;10.408;2023-09-19T09:48:59;18.60;99.90
7000;DHT22;3540;53.242;10.408;2023-09-19T09:51:46;18.60;99.90
7000;DHT22;3540;53.242;10.408;2023-09-19T09:54:23;18.40;99.90
7000;DHT22;3540;53.242;10.408;2023-09-19T09:57:00;18.40;99.90
7000;DHT22;3540;53.242;10.408;2023-09-19T10:02:26;18.40;99.90
7000;DHT22;3540;53.242;10.408;2023-09-19T10:04:58;18.40;99.90
7000;DHT22;3540;53.242;10.408;2023-09-19T10:07:33;18.60;99.90
7000;DHT22;3540;53.242;10.408;2023-09-19T10:10:05;18.70;99.90
7000;DHT22;3540;53.242;10.408;2023-09-19T10:12:55;18.50;99.90
7000;DHT22;3540;53.242;10.408;2023-09-19T10:15:32;18.60;99.90
7000;DHT22;3540;53.242;10.408;2023-09-19T10:18:01;18.70;99.90
7000;DHT22;3540;53.242;10.408;2023-09-19T10:20:28;18.80;99.90
7000;DHT22;3540;53.242;10.408;2023-09-19T10:23:03;18.90;99.90
7000;DHT22;3540;53.242;10.408;2023-09-19T10:25:29;19.10;99.90
7000;DHT22;3540;53.242;10.408;2023-09-19T10:28:00;19.20;99.90
7000;DHT22;3540;53.242;10.408;2023-09-19T10:30:31;19.30;99.90
7000;DHT22;3540;53.242;10.408;2023-09-19T10:33:04;19.20;99.90
7000;DHT22;3540;53.242;10.408;2023-09-19T10:35:32;18.80;99.90
7000;DHT22;3540;53.242;10.408;2023-09-19T10:38:00;18.80;99.90
7000;DHT22;3540;53.242;10.408;2023-09-19T10:40:29;18.70;99.90
7000;DHT22;3540;53.242;10.408;2023-09-19T10:43:05;18.70;99.90
7000;DHT22;3540;53.242;10.408;2023-09-19T10:45:34;18.70;99.90
7000;DHT22;3540;53.242;10.408;2023-09-19T10:48:03;18.60;99.90
7000;DHT22;3540;53.242;10.408;2023-09-19T10:50:35;18.50;99.90
7000;DHT22;3540;53.242;10.408;2023-09-19T10:53:04;18.50;99.90
7000;DHT22;3540;53.242;10.408;2023-09-19T10:55:34;18.70;99.90
7000;DHT22;3540;53.242;10.408;2023-09-19T10:58:05;18.80;99.90
7000;DHT22;3540;53.242;10.408;2023-09-19T11:00:54;18.90;99.90
7000;DHT22;3540;53.242;10.408;2023-09-19T11:03:21;19.20;99.90
7000;DHT22;3540;53.242;10.408;2023-09-19T11:06:14;19.20;99.90
7000;DHT22;3540;53.242;10.408;2023-09-19T11:09:02;19.20;99.90
7000;DHT22;3540;53.242;10.408;2023-09-19T11:30:35;18.80;99.90
7000;DHT22;3540;53.242;10.408;2023-09-19T11:36:13;19.00;99.90
7000;DHT22;3540;53.242;10.408;2023-09-19T11:46:18;18.90;99.90
7000;DHT22;3540;53.242;10.408;2023-09-19T11:48:51;18.90;99.90
7000;DHT22;3540;53.242;10.408;2023-09-19T11:51:19;19.00;99.90
7000;DHT22;3540;53.242;10.408;2023-09-19T11:53:46;18.90;99.90
7000;DHT22;3540;53.242;10.408;2023-09-19T11:56:19;19.00;99.90
7000;DHT22;3540;53.242;10.408;2023-09-19T11:58:46;18.90;99.90
7000;DHT22;3540;53.242;10.408;2023-09-19T12:01:22;19.00;99.90
7000;DHT22;3540;53.242;10.408;2023-09-19T12:03:53;19.00;99.90
7000;DHT22;3540;53.242;10.408;2023-09-19T12:06:20;19.00;99.90
7000;DHT22;3540;53.242;10.408;2023-09-19T12:08:47;19.00;99.90
7000;DHT22;3540;53.242;10.408;2023-09-19T12:11:15;19.10;99.90
7000;DHT22;3540;53.242;10.408;2023-09-19T12:13:45;19.10;99.90
7000;DHT22;3540;53.242;10.408;2023-09-19T12:16:15;19.00;99.90
7000;DHT22;3540;53.242;10.408;2023-09-19T12:18:43;18.90;99.90
7000;DHT22;3540;53.242;10.408;2023-09-19T12:21:28;19.20;99.90
7000;DHT22;3540;53.242;10.408;2023-09-19T12:23:58;19.10;99.90
7000;DHT22;3540;53.242;10.408;2023-09-19T12:26:25;19.10;99.90
7000;DHT22;3540;53.242;10.408;2023-09-19T12:28:52;19.10;99.90
7000;DHT22;3540;53.242;10.408;2023-09-19T12:31:20;19.20;99.90
7000;DHT22;3540;53.242;10.408;2023-09-19T12:33:45;19.20;99.90
7000;DHT22;3540;53.242;10.408;2023-09-19T12:36:23;19.30;99.90
7000;DHT22;3540;53.242;10.408;2023-09-19T12:38:50;19.30;99.90
7000;DHT22;3540;53.242;10.408;2023-09-19T12:41:19;19.50;99.90
7000;DHT22;3540;53.242;10.408;2023-09-19T12:43:46;19.40;99.90
7000;DHT22;3540;53.242;10.408;2023-09-19T12:46:12;19.40;99.90
7000;DHT22;3540;53.242;10.408;2023-09-19T12:48:38;19.50;99.90
7000;DHT22;3540;53.242;10.408;2023-09-19T12:51:12;19.60;99.90
7000;DHT22;3540;53.242;10.408;2023-09-19T12:53:40;19.40;99.90
7000;DHT22;3540;53.242;10.408;2023-09-19T12:56:11;19.50;99.90
7000;DHT22;3540;53.242;10.408;2023-09-19T12:58:53;19.60;99.90
7000;DHT22;3540;53.242;10.408;2023-09-19T13:01:22;19.80;99.90
7000;DHT22;3540;53.242;10.408;2023-09-19T13:04:19;19.80;99.90
7000;DHT22;3540;53.242;10.408;2023-09-19T13:06:46;19.90;99.90
7000;DHT22;3540;53.242;10.408;2023-09-19T13:09:14;20.00;99.90
7000;DHT22;3540;53.242;10.408;2023-09-19T13:11:40;19.70;99.90
7000;DHT22;3540;53.242;10.408;2023-09-19T13:19:47;19.70;99.90
7000;DHT22;3540;53.242;10.408;2023-09-19T13:25:15;19.70;99.90
7000;DHT22;3540;53.242;10.408;2023-09-19T13:27:55;19.70;99.90
7000;DHT22;3540;53.242;10.408;2023-09-19T13:30:25;19.60;99.90
7000;DHT22;3540;53.242;10.408;2023-09-19T13:32:52;19.80;99.90
7000;DHT22;3540;53.242;10.408;2023-09-19T13:35:18;19.80;99.90
7000;DHT22;3540;53.242;10.408;2023-09-19T13:37:44;20.00;99.90
7000;DHT22;3540;53.242;10.408;2023-09-19T13:40:15;20.20;99.90
7000;DHT22;3540;53.242;10.408;2023-09-19T13:42:41;20.20;99.90
7000;DHT22;3540;53.242;10.408;2023-09-19T13:45:07;20.00;99.90
7000;DHT22;3540;53.242;10.408;2023-09-19T13:47:37;19.60;99.90
7000;DHT22;3540;53.242;10.408;2023-09-19T13:50:04;19.80;99.90
7000;DHT22;3540;53.242;10.408;2023-09-19T13:52:31;20.00;99.90
7000;DHT22;3540;53.242;10.408;2023-09-19T13:54:57;20.00;99.90
7000;DHT22;3540;53.242;10.408;2023-09-19T13:57:24;19.90;99.90
7000;DHT22;3540;53.242;10.408;2023-09-19T13:59:49;19.80;99.90
7000;DHT22;3540;53.242;10.408;2023-09-19T14:02:15;19.80;99.90
7000;DHT22;3540;53.242;10.408;2023-09-19T14:04:44;19.80;99.90
7000;DHT22;3540;53.242;10.408;2023-09-19T14:07:09;19.80;99.90
7000;DHT22;3540;53.242;10.408;2023-09-19T14:09:36;20.00;99.90
7000;DHT22;3540;53.242;10.408;2023-09-19T14:12:02;19.90;99.90
7000;DHT22;3540;53.242;10.408;2023-09-19T14:14:28;19.90;99.90
7000;DHT22;3540;53.242;10.408;2023-09-19T14:16:53;19.90;99.90
7000;DHT22;3540;53.242;10.408;2023-09-19T14:19:20;19.90;99.90
7000;DHT22;3540;53.242;10.408;2023-09-19T14:21:46;19.90;99.90
7000;DHT22;3540;53.242;10.408;2023-09-19T14:24:16;20.10;99.90
7000;DHT22;3540;53.242;10.408;2023-09-19T14:26:43;19.90;99.90
7000;DHT22;3540;53.242;10.408;2023-09-19T14:29:08;19.80;99.90
7000;DHT22;3540;53.242;10.408;2023-09-19T14:31:37;19.90;99.90
7000;DHT22;3540;53.242;10.408;2023-09-19T14:34:04;20.00;99.90
7000;DHT22;3540;53.242;10.408;2023-09-19T14:36:30;20.00;99.90
7000;DHT22;3540;53.242;10.408;2023-09-19T14:38:56;19.80;99.90
7000;DHT22;3540;53.242;10.408;2023-09-19T14:41:25;19.80;99.90
7000;DHT22;3540;53.242;10.408;2023-09-19T14:43:54;19.90;99.90
7000;DHT22;3540;53.242;10.408;2023-09-19T14:46:22;19.80;99.90
7000;DHT22;3540;53.242;10.408;2023-09-19T14:48:53;19.80;99.90
7000;DHT22;3540;53.242;10.408;2023-09-19T14:51:19;19.80;99.90
7000;DHT22;3540;53.242;10.408;2023-09-19T14:53:45;19.90;99.90
7000;DHT22;3540;53.242;10.408;2023-09-19T14:56:14;19.80;99.90
7000;DHT22;3540;53.242;10.408;2023-09-19T14:58:44;19.60;99.90
7000;DHT22;3540;53.242;10.408;2023-09-19T15:01:11;19.50;99.90
7000;DHT22;3540;53.242;10.408;2023-09-19T15:03:38;19.60;99.90
7000;DHT22;3540;53.242;10.408;2023-09-19T15:06:07;19.60;99.90
7000;DHT22;3540;53.242;10.408;2023-09-19T15:08:35;19.60;99.90
7000;DHT22;3540;53.242;10.408;2023-09-19T15:11:21;19.60;99.90
7000;DHT22;3540;53.242;10.408;2023-09-19T15:13:50;19.80;99.90
7000;DHT22;3540;53.242;10.408;2023-09-19T15:16:15;19.70;99.90
7000;DHT22;3540;53.242;10.408;2023-09-19T15:18:44;19.50;99.90
7000;DHT22;3540;53.242;10.408;2023-09-19T15:21:13;19.60;99.90
7000;DHT22;3540;53.242;10.408;2023-09-19T15:23:40;19.70;99.90
7000;DHT22;3540;53.242;10.408;2023-09-19T15:26:07;19.80;99.90
7000;DHT22;3540;53.242;10.408;2023-09-19T15:28:39;19.80;99.90
7000;DHT22;3540;53.242;10.408;2023-09-19T15:33:32;19.50;99.90
7000;DHT22;3540;53.242;10.408;2023-09-19T15:36:05;19.50;99.90
7000;DHT22;3540;53.242;10.408;2023-09-19T15:38:31;19.60;99.90
7000;DHT22;3540;53.242;10.408;2023-09-19T15:41:00;19.80;99.90
7000;DHT22;3540;53.242;10.408;2023-09-19T15:43:26;19.80;99.90
7000;DHT22;3540;53.242;10.408;2023-09-19T15:45:52;19.70;99.90
7000;DHT22;3540;53.242;10.408;2023-09-19T15:48:17;19.70;99.90
7000;DHT22;3540;53.242;10.408;2023-09-19T15:50:46;19.80;99.90
7000;DHT22;3540;53.242;10.408;2023-09-19T15:53:12;19.70;99.90
7000;DHT22;3540;53.242;10.408;2023-09-19T15:55:39;19.40;99.90
7000;DHT22;3540;53.242;10.408;2023-09-19T15:58:05;19.30;99.90
7000;DHT22;3540;53.242;10.408;2023-09-19T16:00:35;19.20;99.90
7000;DHT22;3540;53.242;10.408;2023-09-19T16:03:05;19.10;99.90
7000;DHT22;3540;53.242;10.408;2023-09-19T16:05:37;19.10;99.90
7000;DHT22;3540;53.242;10.408;2023-09-19T16:08:05;19.10;99.90
7000;DHT22;3540;53.242;10.408;2023-09-19T16:10:35;19.10;99.90
7000;DHT22;3540;53.242;10.408;2023-09-19T16:13:02;19.20;99.90
7000;DHT22;3540;53.242;10.408;2023-09-19T16:15:29;19.20;99.90
7000;DHT22;3540;53.242;10.408;2023-09-19T16:17:54;19.20;99.90
7000;DHT22;3540;53.242;10.408;2023-09-19T16:20:20;19.00;99.90
7000;DHT22;3540;53.242;10.408;2023-09-19T16:22:48;19.00;99.90
7000;DHT22;3540;53.242;10.408;2023-09-19T16:25:14;19.00;99.90
7000;DHT22;3540;53.242;10.408;2023-09-19T16:27:39;18.90;99.90
7000;DHT22;3540;53.242;10.408;2023-09-19T16:30:06;18.90;99.90
7000;DHT22;3540;53.242;10.408;2023-09-19T16:32:35;18.90;99.90
7000;DHT22;3540;53.242;10.408;2023-09-19T16:35:01;18.90;99.90
7000;DHT22;3540;53.242;10.408;2023-09-19T16:37:28;18.90;99.90
7000;DHT22;3540;53.242;10.408;2023-09-19T16:39:53;18.90;99.90
7000;DHT22;3540;53.242;10.408;2023-09-19T16:42:19;18.90;99.90
7000;DHT22;3540;53.242;10.408;2023-09-19T16:44:45;18.90;99.90